• Join FlightAware (Why Join?)
  • Login
  • US Flag 
12:55AM EDT


 

Airport Tracker/Info


-or-


 

Live Flight TrackerFlight Track Log ✈ FIN666 ✈ 15-Apr-2014 ✈ EKCH / CPH - EFHK / HEL

Flight Track Log - Related Links

Times and Time Zones

All times are in EDT time to prevent confusion due to time zone crossing. See the FIN666 flight status page for this flight to view local times or setup timezone preferences in your user account.

Time Position Orientation Groundspeed Altitude Reporting Facility
EDT Latitude Longitude Course Direction KTS MPH feet Rate Location/Type
07:26AM 55.8191 13.0714 49° Northeast  Level Estimated
07:27AM 55.8859 13.2108 49° Northeast  Level Estimated
07:28AM 55.9525 13.3508 50° Northeast  Level Estimated
07:29AM 56.0189 13.4911 50° Northeast  Level Estimated
07:30AM 56.0852 13.6320 50° Northeast  Level Estimated
07:31AM 56.1513 13.7734 50° Northeast  Level Estimated
07:32AM 56.2238 13.9292 50° Northeast  Level Estimated
07:33AM 56.2961 14.0857 50° Northeast  Level Estimated
07:34AM 56.3681 14.2428 50° Northeast  Level Estimated
07:35AM 56.4400 14.4004 50° Northeast  Level Estimated
07:36AM 56.5116 14.5586 51° Northeast  Level Estimated
07:37AM 56.5831 14.7175 51° Northeast  Level Estimated
07:38AM 56.6544 14.8769 51° Northeast  Level Estimated
07:39AM 56.7254 15.0369 51° Northeast  Level Estimated
07:40AM 56.7962 15.1976 51° Northeast  Level Estimated
07:41AM 56.8669 15.3588 51° Northeast  Level Estimated
07:42AM 56.9373 15.5207 51° Northeast  Level Estimated
07:43AM 57.0075 15.6831 52° Northeast  Level Estimated
07:44AM 57.0775 15.8462 52° Northeast  Level Estimated
07:45AM 57.1473 16.0099 52° Northeast  Level Estimated
07:46AM 57.2169 16.1742 52° Northeast  Level Estimated
07:47AM 57.2863 16.3392 52° Northeast  Level Estimated
07:48AM 57.3554 16.5047 52° Northeast  Level Estimated
07:49AM 57.4234 16.6686 52° Northeast  Level Estimated
07:50AM 57.4912 16.8331 52° Northeast  Level Estimated
07:51AM 57.5587 16.9982 53° Northeast  Level Estimated
07:52AM 57.6260 17.1639 53° Northeast  Level Estimated
07:53AM 57.6931 17.3302 53° Northeast  Level Estimated
07:54AM 57.7601 17.4971 53° Northeast  Level Estimated
07:55AM 57.8267 17.6647 53° Northeast  Level Estimated
07:56AM 57.8932 17.8328 53° Northeast  Level Estimated
07:57AM 57.9594 18.0016 53° Northeast  Level Estimated
07:58AM 58.0254 18.1710 54° Northeast  Level Estimated
07:59AM 58.0912 18.3411 54° Northeast  Level Estimated
08:00AM 58.1567 18.5117 54° Northeast  Level Estimated
08:01AM 58.2221 18.6830 54° Northeast  Level Estimated
08:02AM 58.2872 18.8550 54° Northeast  Level Estimated
08:03AM 58.3520 19.0275 54° Northeast  Level Estimated
08:04AM 58.4166 19.2007 54° Northeast  Level Estimated
08:05AM 58.4810 19.3745 55° Northeast  Level Estimated
08:06AM 58.5452 19.5490 55° Northeast  Level Estimated
08:07AM 58.6091 19.7241 55° Northeast  Level Estimated
08:08AM 58.6728 19.8999 55° Northeast  Level Estimated
08:09AM 58.7362 20.0763 55° Northeast  Level Estimated
08:10AM 58.7994 20.2533 55° Northeast  Level Estimated
08:11AM 58.8624 20.4310 56° Northeast  Level Estimated
08:12AM 58.9251 20.6093 56° Northeast  Level Estimated
08:13AM 58.9876 20.7882 56° Northeast  Level Estimated
08:14AM 59.0498 20.9679 56° Northeast  Level Estimated
08:15AM 59.1118 21.1481 56° Northeast  Level Estimated
08:16AM 59.1735 21.3291 56° Northeast  Level Estimated
08:17AM 59.2350 21.5106 56° Northeast  Level Estimated
08:18AM 59.2953 21.6904 57° Northeast  Level Estimated
08:19AM 59.3554 21.8707 57° Northeast  Level Estimated
08:20AM 59.4153 22.0517 57° Northeast  Level Estimated
08:21AM 59.4749 22.2334 57° Northeast  Level Estimated
08:22AM 59.5343 22.4156 57° Northeast  Level Estimated
08:23AM 59.5934 22.5986 57° Northeast  Level Estimated
08:24AM 59.6523 22.7822 58° Northeast  Level Estimated
08:25AM 59.7109 22.9664 58° Northeast  Level Estimated
08:26AM 59.7693 23.1512 58° Northeast  Level Estimated
08:27AM 59.8273 23.3367 58° Northeast  Level Estimated
08:28AM 59.8852 23.5229 58° Northeast  Level Estimated
08:29AM 59.9427 23.7097 58° Northeast  Level Estimated
08:30AM 60.0000 23.8971 59° Northeast  Level Estimated
08:31AM 60.0570 24.0852 59° Northeast  Level Estimated
08:32AM 60.1189 24.2909 59° Northeast  Level Estimated
08:33AM 60.1804 24.4973 59° Northeast  Level Estimated
08:34AM 60.2416 24.7046 59° Northeast  Level Estimated
08:35AM 60.3024 24.9126 59° Northeast  Level Estimated
08:36AM 60.3172 24.9633 60° Northeast  Level Estimated
08:37AM 60.3172 24.9633 North  Level Estimated
08:38AM 60.3172 24.9633 North  Level Estimated
08:39AM 60.3172 24.9633 North  Level Estimated
08:40AM 60.3172 24.9633 North  Level Estimated
08:41AM 60.3172 24.9633 North  Level Estimated
08:42AM 60.3172 24.9633 North  Level Estimated
08:43AM 60.3172 24.9633 North  Level Estimated
08:44AM 60.3172 24.9633 North  Level Estimated